Time;durP1;ratioP1;P1;durP2;ratioP2;P2;SDS_P1;SDS_P2;PMS_P1;PMS_P2;Temp;Humidity;BMP_temperature;BMP_pressure;BME280_temperature;BME280_humidity;BME280_pressure;Samples;Min_cycle;Max_cycle;Signal;HPM_P1;HPM_P2
2023/09/01 00:00:44;;;;;;;5.93;2.40;;;;;;;16.75;73.98;101221.63;5058576;27;96634;-26
2023/09/01 00:03:10;;;;;;;5.78;2.53;;;;;;;16.78;73.31;101226.88;5040240;27;96928;-26
2023/09/01 00:05:37;;;;;;;7.13;2.78;;;;;;;16.78;73.47;101213.19;5057850;27;98022;-26
2023/09/01 00:08:03;;;;;;;4.57;2.42;;;;;;;16.73;73.43;101213.56;5039398;27;100956;-26
2023/09/01 00:10:28;;;;;;;6.50;2.10;;;;;;;16.72;73.89;101214.53;5057919;27;96451;-26
2023/09/01 00:12:55;;;;;;;8.15;1.60;;;;;;;16.73;73.83;101227.25;5058202;27;96819;-26
2023/09/01 00:15:20;;;;;;;6.25;2.55;;;;;;;16.74;74.29;101222.63;5039270;27;100936;-26
2023/09/01 00:17:45;;;;;;;3.40;1.27;;;;;;;16.65;74.09;101212.44;5039612;27;97244;-26
2023/09/01 00:20:11;;;;;;;3.47;1.50;;;;;;;16.66;74.29;101225.09;5058061;27;96783;-26
2023/09/01 00:22:36;;;;;;;2.15;1.33;;;;;;;16.66;73.89;101216.91;5058107;27;96841;-26
2023/09/01 00:25:03;;;;;;;3.00;1.27;;;;;;;16.61;74.20;101225.47;5057553;27;97870;-27
2023/09/01 00:27:28;;;;;;;2.65;1.15;;;;;;;16.59;74.01;101224.75;5057862;27;97799;-27
2023/09/01 00:29:54;;;;;;;5.05;1.63;;;;;;;16.61;73.63;101224.59;5058453;27;96499;-26
2023/09/01 00:32:19;;;;;;;4.78;2.10;;;;;;;16.60;73.42;101222.88;5058022;27;96789;-27
2023/09/01 00:34:44;;;;;;;5.30;1.60;;;;;;;16.61;73.49;101225.47;5056936;27;97867;-27
2023/09/01 00:37:10;;;;;;;5.05;1.83;;;;;;;16.60;73.90;101226.47;5057543;27;97372;-26
2023/09/01 00:39:35;;;;;;;5.70;1.95;;;;;;;16.63;74.11;101233.56;5057946;27;96624;-26
2023/09/01 00:42:00;;;;;;;8.10;2.05;;;;;;;16.65;73.89;101228.84;5057097;27;96877;-26
2023/09/01 00:44:26;;;;;;;6.03;1.75;;;;;;;16.55;74.01;101226.84;5057625;27;97266;-27
2023/09/01 00:46:51;;;;;;;5.68;1.48;;;;;;;16.55;74.20;101224.13;5057312;27;97381;-27
2023/09/01 00:49:18;;;;;;;5.30;1.58;;;;;;;16.43;74.33;101216.03;5057933;27;96593;-27
2023/09/01 00:51:47;;;;;;;1.75;1.13;;;;;;;16.48;74.20;101222.00;5057797;27;96827;-26
2023/09/01 00:54:14;;;;;;;2.97;1.35;;;;;;;16.47;74.46;101212.03;5038779;27;101083;-28
2023/09/01 00:56:40;;;;;;;2.55;1.38;;;;;;;16.42;74.29;101209.72;5038776;27;101241;-26
2023/09/01 00:59:06;;;;;;;2.10;1.25;;;;;;;16.45;74.00;101214.94;5038691;27;96581;-26
2023/09/01 01:01:32;;;;;;;6.63;1.65;;;;;;;16.42;74.57;101201.50;5057674;27;96780;-28
2023/09/01 01:03:58;;;;;;;3.40;1.55;;;;;;;16.49;74.66;101221.00;5041287;27;100525;-27
2023/09/01 01:06:41;;;;;;;4.03;1.45;;;;;;;16.51;74.46;101219.88;5042359;27;101458;-26
2023/09/01 01:09:12;;;;;;;3.30;1.50;;;;;;;16.52;74.66;101223.50;5042826;27;96577;-26
2023/09/01 01:12:05;;;;;;;2.28;1.42;;;;;;;16.51;74.59;101217.16;5061022;27;96988;-26
2023/09/01 01:14:40;;;;;;;5.63;1.95;;;;;;;16.50;75.23;101217.28;5042210;27;101459;-26
2023/09/01 01:17:06;;;;;;;7.25;1.92;;;;;;;16.50;74.54;101222.75;5042510;27;101233;-26
2023/09/01 01:19:38;;;;;;;3.35;1.42;;;;;;;16.48;75.66;101228.34;5042408;27;96850;-27
2023/09/01 01:22:05;;;;;;;5.57;1.52;;;;;;;16.47;74.99;101225.72;5042561;27;96732;-26
2023/09/01 01:24:32;;;;;;;3.13;1.38;;;;;;;16.48;75.29;101224.75;5041584;27;101108;-29
2023/09/01 01:26:58;;;;;;;3.55;1.60;;;;;;;16.44;75.05;101217.78;5041735;27;101582;-26
2023/09/01 01:29:23;;;;;;;4.80;1.98;;;;;;;16.43;75.67;101225.09;5060597;27;96480;-27
2023/09/01 01:31:48;;;;;;;7.28;1.85;;;;;;;16.37;75.51;101222.00;5060874;27;96624;-27
2023/09/01 01:34:29;;;;;;;3.55;1.67;;;;;;;16.37;75.50;101222.84;5060383;27;97457;-26
2023/09/01 01:37:10;;;;;;;5.38;1.95;;;;;;;16.30;76.36;101217.03;5060422;27;97829;-26
2023/09/01 01:39:38;;;;;;;2.95;1.63;;;;;;;16.29;75.74;101215.28;5042195;27;96713;-26
2023/09/01 01:42:15;;;;;;;4.60;1.90;;;;;;;16.29;75.83;101225.34;5041932;27;96823;-27
2023/09/01 01:44:43;;;;;;;5.97;1.92;;;;;;;16.28;75.59;101227.22;5041820;27;101001;-26
2023/09/01 01:47:09;;;;;;;5.65;2.25;;;;;;;16.30;76.24;101225.22;5041636;27;100985;-27
2023/09/01 01:49:35;;;;;;;4.40;1.92;;;;;;;16.35;75.32;101227.56;5059984;27;96652;-26
2023/09/01 01:52:00;;;;;;;3.85;1.90;;;;;;;16.34;75.62;101229.44;5060311;27;96831;-27
2023/09/01 01:54:27;;;;;;;6.70;1.88;;;;;;;16.27;76.42;101213.66;5041660;27;99070;-26
2023/09/01 01:56:52;;;;;;;3.92;1.90;;;;;;;16.28;76.35;101216.28;5041516;27;101195;-26
2023/09/01 01:59:17;;;;;;;5.32;2.30;;;;;;;16.33;76.05;101224.13;5060183;27;96653;-26
2023/09/01 02:01:43;;;;;;;3.45;1.95;;;;;;;16.34;76.56;101217.66;5060318;27;96737;-26
2023/09/01 02:04:08;;;;;;;5.28;1.80;;;;;;;16.28;76.16;101212.66;5059905;27;97308;-26
2023/09/01 02:06:33;;;;;;;7.65;1.77;;;;;;;16.32;75.82;101215.03;5059985;27;97817;-28
2023/09/01 02:08:59;;;;;;;6.28;1.67;;;;;;;16.33;76.17;101215.91;5060166;27;96521;-27
2023/09/01 02:11:24;;;;;;;4.63;1.65;;;;;;;16.34;75.97;101209.44;5060218;27;96789;-27
2023/09/01 02:13:50;;;;;;;6.38;1.50;;;;;;;16.32;76.14;101206.81;5058896;27;97333;-27
2023/09/01 02:16:15;;;;;;;6.28;1.67;;;;;;;16.35;76.18;101216.63;5059777;27;97800;-27
2023/09/01 02:18:40;;;;;;;3.72;1.70;;;;;;;16.35;76.74;101222.09;5060309;27;96704;-26
2023/09/01 02:21:06;;;;;;;5.15;1.80;;;;;;;16.30;76.27;101216.13;5059927;27;96734;-27
2023/09/01 02:23:31;;;;;;;4.30;2.22;;;;;;;16.33;76.42;101215.91;5059318;27;99208;-27
2023/09/01 02:25:56;;;;;;;5.40;1.70;;;;;;;16.32;76.30;101212.28;5059565;27;97908;-27
2023/09/01 02:28:22;;;;;;;4.80;1.60;;;;;;;16.33;76.38;101204.97;5060023;27;96531;-26
2023/09/01 02:30:47;;;;;;;6.07;1.60;;;;;;;16.30;76.55;101202.47;5060348;27;96802;-26
2023/09/01 02:33:14;;;;;;;4.05;1.70;;;;;;;16.30;76.74;101206.09;5059794;27;97408;-27
2023/09/01 02:35:44;;;;;;;2.83;1.55;;;;;;;16.28;76.52;101201.72;5040576;27;101097;-27
2023/09/01 02:38:11;;;;;;;5.10;1.90;;;;;;;16.27;76.58;101200.84;5041146;27;96526;-27
2023/09/01 02:40:37;;;;;;;2.60;1.42;;;;;;;16.18;76.98;101187.91;5040652;27;96935;-32
2023/09/01 02:43:03;;;;;;;4.90;1.73;;;;;;;16.23;76.85;101203.94;5040788;27;99054;-26
2023/09/01 02:45:29;;;;;;;5.53;1.70;;;;;;;16.19;77.14;101188.81;5040664;27;100870;-26
2023/09/01 02:47:54;;;;;;;3.05;1.58;;;;;;;16.22;76.68;101185.81;5041099;27;96654;-26
2023/09/01 02:50:20;;;;;;;5.55;1.73;;;;;;;16.23;77.23;101182.09;5059779;27;96731;-26
2023/09/01 02:52:45;;;;;;;6.25;1.90;;;;;;;16.22;77.31;101188.56;5059163;27;97987;-27
2023/09/01 02:55:12;;;;;;;5.85;1.90;;;;;;;16.20;76.54;101183.19;5059509;27;97871;-27
2023/09/01 02:57:37;;;;;;;2.38;1.38;;;;;;;16.25;76.96;101196.50;5059189;27;96609;-27
2023/09/01 03:00:14;;;;;;;4.32;1.45;;;;;;;16.24;77.12;101195.63;5059301;27;96841;-26
2023/09/01 03:02:45;;;;;;;3.80;1.48;;;;;;;16.20;76.73;101193.28;5058061;27;99293;-26
2023/09/01 03:05:10;;;;;;;2.00;1.30;;;;;;;16.23;77.63;101190.28;5058625;27;98439;-26
2023/09/01 03:07:38;;;;;;;2.88;1.38;;;;;;;16.20;76.96;101191.41;5059109;27;96454;-26
2023/09/01 03:10:07;;;;;;;2.92;1.35;;;;;;;16.18;77.53;101187.91;5059229;27;96783;-26
2023/09/01 03:12:33;;;;;;;2.00;1.30;;;;;;;16.23;77.57;101193.03;5040157;27;101572;-28
2023/09/01 03:14:59;;;;;;;2.90;1.45;;;;;;;16.22;77.47;101194.88;5040273;27;101377;-26
2023/09/01 03:17:24;;;;;;;2.63;1.52;;;;;;;16.21;77.62;101200.47;5058900;27;96656;-26
2023/09/01 03:19:49;;;;;;;7.53;1.58;;;;;;;16.19;78.28;101197.00;5059279;27;96856;-26
2023/09/01 03:22:15;;;;;;;4.45;1.42;;;;;;;16.17;77.89;101193.53;5058483;27;97369;-26
2023/09/01 03:24:40;;;;;;;5.63;2.03;;;;;;;16.21;77.51;101195.00;5058336;27;97231;-27
2023/09/01 03:27:06;;;;;;;2.65;1.70;;;;;;;16.19;77.50;101194.28;5057947;27;96527;-27
2023/09/01 03:29:32;;;;;;;7.25;1.90;;;;;;;16.20;78.13;101182.34;5059125;27;96758;-26
2023/09/01 03:31:57;;;;;;;3.33;1.63;;;;;;;16.13;78.61;101177.34;5039673;27;101058;-26
2023/09/01 03:34:23;;;;;;;3.42;1.70;;;;;;;16.16;78.44;101175.38;5058556;27;97458;-26
2023/09/01 03:36:49;;;;;;;5.28;1.90;;;;;;;16.14;78.10;101184.56;5040445;27;96530;-26
2023/09/01 03:39:15;;;;;;;5.40;2.05;;;;;;;16.11;78.15;101194.88;5058951;27;96658;-26
2023/09/01 03:41:41;;;;;;;4.00;1.80;;;;;;;16.08;79.05;101185.03;5057321;27;97958;-26
2023/09/01 03:44:07;;;;;;;4.40;1.63;;;;;;;16.07;78.39;101190.66;5040236;27;101106;-26
2023/09/01 03:46:32;;;;;;;8.18;2.28;;;;;;;16.07;78.95;101191.53;5058642;27;96683;-26
2023/09/01 03:48:57;;;;;;;3.38;1.85;;;;;;;16.02;79.32;101182.81;5058588;27;96528;-27
2023/09/01 03:51:23;;;;;;;4.85;1.70;;;;;;;16.07;79.12;101183.31;5057474;27;99376;-26
2023/09/01 03:53:48;;;;;;;4.22;1.88;;;;;;;16.03;78.90;101184.56;5058009;27;97811;-26
2023/09/01 03:56:16;;;;;;;1.63;1.23;;;;;;;15.98;78.51;101170.38;5058261;27;96543;-27
2023/09/01 03:58:42;;;;;;;3.30;1.88;;;;;;;15.99;79.24;101177.56;5040233;27;96775;-26
2023/09/01 04:01:11;;;;;;;3.33;1.73;;;;;;;16.01;79.23;101177.47;5057893;27;97961;-27
2023/09/01 04:03:44;;;;;;;4.25;2.05;;;;;;;15.99;79.30;101174.84;5039450;27;99784;-27
2023/09/01 04:06:11;;;;;;;3.63;1.65;;;;;;;16.04;79.69;101171.75;5040135;27;96623;-26
2023/09/01 04:08:37;;;;;;;4.22;1.80;;;;;;;16.01;79.22;101164.66;5040410;27;96939;-26
2023/09/01 04:11:03;;;;;;;3.38;1.60;;;;;;;16.03;79.00;101170.03;5057710;27;99795;-26
2023/09/01 04:13:32;;;;;;;4.45;1.92;;;;;;;15.99;79.81;101177.56;5039337;27;101373;-27
2023/09/01 04:15:57;;;;;;;2.92;1.80;;;;;;;15.99;79.87;101184.91;5057496;27;96675;-26
2023/09/01 04:18:23;;;;;;;4.07;1.90;;;;;;;15.97;79.79;101171.38;5058212;27;96793;-26
2023/09/01 04:20:49;;;;;;;2.22;1.38;;;;;;;15.95;79.54;101169.78;5039191;27;100960;-26
2023/09/01 04:23:15;;;;;;;2.83;1.73;;;;;;;15.95;80.17;101170.63;5039130;27;100821;-26
2023/09/01 04:25:44;;;;;;;3.50;1.90;;;;;;;15.98;80.49;101178.59;5058053;27;96447;-26
2023/09/01 04:28:10;;;;;;;5.70;1.48;;;;;;;15.92;80.22;101165.38;5039482;27;96973;-28
2023/09/01 04:30:36;;;;;;;5.13;2.13;;;;;;;15.93;79.92;101157.09;5057571;27;97865;-26
2023/09/01 04:33:05;;;;;;;5.30;1.92;;;;;;;15.96;80.77;101166.91;5039471;27;100904;-26
2023/09/01 04:35:32;;;;;;;3.92;2.10;;;;;;;15.91;79.63;101160.94;5058099;27;96598;-26
2023/09/01 04:37:57;;;;;;;5.93;2.28;;;;;;;15.90;80.08;101168.25;5039354;27;96858;-26
2023/09/01 04:40:22;;;;;;;7.10;2.25;;;;;;;15.91;81.24;101180.91;5056601;27;98112;-27
2023/09/01 04:42:48;;;;;;;2.65;1.75;;;;;;;15.94;80.38;101179.81;5056928;27;97932;-27
2023/09/01 04:45:13;;;;;;;4.78;2.13;;;;;;;15.93;80.84;101178.09;5057788;27;96486;-26
2023/09/01 04:47:39;;;;;;;3.42;2.20;;;;;;;15.99;81.07;101188.50;5058011;27;96812;-26
2023/09/01 04:50:05;;;;;;;5.25;1.77;;;;;;;15.96;80.46;101180.56;5056955;27;99853;-27
2023/09/01 04:52:30;;;;;;;5.35;2.13;;;;;;;15.93;81.54;101187.13;5057340;27;97913;-26
2023/09/01 04:54:56;;;;;;;4.53;1.73;;;;;;;15.93;80.33;101189.88;5057772;27;96512;-26
2023/09/01 04:57:21;;;;;;;4.38;2.28;;;;;;;15.92;81.31;101189.97;5057690;27;96855;-26
2023/09/01 04:59:48;;;;;;;5.32;2.13;;;;;;;15.84;81.79;101181.53;5057140;27;97924;-26
2023/09/01 05:02:14;;;;;;;5.75;2.17;;;;;;;15.81;81.10;101170.84;5056809;27;99210;-26
2023/09/01 05:04:39;;;;;;;4.80;1.88;;;;;;;15.78;81.81;101168.34;5038600;27;96538;-27
2023/09/01 05:07:04;;;;;;;5.72;2.15;;;;;;;15.79;81.80;101167.38;5057634;27;96801;-27
2023/09/01 05:09:30;;;;;;;3.78;2.00;;;;;;;15.78;82.22;101177.44;5056726;27;99263;-26
2023/09/01 05:11:55;;;;;;;3.83;1.83;;;;;;;15.77;82.08;101181.13;5056900;27;97802;-26
2023/09/01 05:14:20;;;;;;;5.00;2.15;;;;;;;15.81;81.04;101179.06;5057416;27;96563;-26
2023/09/01 05:16:46;;;;;;;6.47;2.05;;;;;;;15.76;82.25;101175.81;5039522;27;96740;-26
2023/09/01 05:19:11;;;;;;;3.83;2.30;;;;;;;15.76;81.65;101192.19;5056892;27;97936;-26
2023/09/01 05:21:37;;;;;;;6.18;2.53;;;;;;;15.73;81.85;101193.31;5057213;27;97309;-28
2023/09/01 05:24:02;;;;;;;3.45;1.98;;;;;;;15.75;82.20;101191.31;5056986;27;97058;-26
2023/09/01 05:26:27;;;;;;;3.95;2.08;;;;;;;15.78;81.46;101187.47;5056494;27;96893;-26
2023/09/01 05:28:53;;;;;;;5.35;2.72;;;;;;;15.82;81.37;101188.97;5056360;27;98048;-26
2023/09/01 05:31:18;;;;;;;3.72;2.03;;;;;;;15.85;82.09;101195.09;5056459;27;98891;-27
2023/09/01 05:33:43;;;;;;;3.65;1.85;;;;;;;15.79;81.38;101184.63;5038851;27;96574;-27
2023/09/01 05:36:09;;;;;;;4.15;2.35;;;;;;;15.81;82.00;101187.25;5057090;27;96975;-27
2023/09/01 05:38:34;;;;;;;2.55;1.88;;;;;;;15.83;82.53;101185.28;5056718;27;97389;-26
2023/09/01 05:41:03;;;;;;;7.90;2.10;;;;;;;15.77;82.70;101180.28;5056397;27;97215;-26
2023/09/01 05:43:31;;;;;;;4.80;2.45;;;;;;;15.79;81.82;101181.03;5038843;27;96563;-26
2023/09/01 05:45:57;;;;;;;4.13;2.13;;;;;;;15.85;81.14;101189.63;5038108;27;96837;-27
2023/09/01 05:48:23;;;;;;;3.70;2.25;;;;;;;15.85;82.02;101186.88;5035748;27;101066;-29
2023/09/01 05:50:48;;;;;;;4.60;2.30;;;;;;;15.87;82.74;101187.63;5057560;27;97256;-29
2023/09/01 05:53:13;;;;;;;5.43;2.35;;;;;;;15.87;82.01;101190.38;5057419;27;97838;-27
2023/09/01 05:55:39;;;;;;;3.50;1.88;;;;;;;15.87;81.45;101181.28;5057655;27;97381;-27
2023/09/01 05:58:04;;;;;;;3.67;1.90;;;;;;;15.87;82.32;101192.22;5057333;27;97039;-32
2023/09/01 06:00:30;;;;;;;6.20;2.13;;;;;;;15.84;82.75;101190.59;5057345;27;99394;-26
2023/09/01 06:02:56;;;;;;;9.88;2.65;;;;;;;15.91;82.04;101202.78;5060210;27;96486;-27
2023/09/01 06:05:22;;;;;;;4.25;2.65;;;;;;;15.92;81.88;101192.72;5041838;27;96884;-26
2023/09/01 06:07:48;;;;;;;4.50;1.98;;;;;;;15.95;81.93;101197.09;5041372;27;98860;-26
2023/09/01 06:10:15;;;;;;;7.97;2.50;;;;;;;15.90;82.85;101187.38;5060151;27;97881;-26
2023/09/01 06:12:40;;;;;;;4.47;2.58;;;;;;;15.95;83.00;101197.97;5041709;27;96530;-28
2023/09/01 06:15:06;;;;;;;6.90;2.22;;;;;;;15.91;82.98;101194.59;5041708;27;96852;-27
2023/09/01 06:17:32;;;;;;;3.30;1.98;;;;;;;15.82;83.07;101200.75;5058864;27;100003;-26
2023/09/01 06:19:57;;;;;;;3.17;2.05;;;;;;;15.83;82.14;101196.19;5059308;27;96853;-27
2023/09/01 06:22:23;;;;;;;8.32;2.00;;;;;;;15.95;82.53;101200.69;5059716;27;96891;-26
2023/09/01 06:24:48;;;;;;;5.00;2.17;;;;;;;15.99;81.58;101193.09;5059714;27;96845;-26
2023/09/01 06:27:13;;;;;;;4.70;2.20;;;;;;;15.95;82.10;101192.50;5059178;27;104048;-26
2023/09/01 06:29:39;;;;;;;4.35;2.20;;;;;;;16.01;81.53;101188.41;5059575;27;97764;-27
2023/09/01 06:32:05;;;;;;;4.55;2.25;;;;;;;16.00;82.29;101198.47;5060072;27;96487;-26
2023/09/01 06:34:30;;;;;;;6.03;2.63;;;;;;;16.02;82.21;101207.41;5060148;27;96702;-27
2023/09/01 06:36:56;;;;;;;3.63;2.03;;;;;;;16.02;82.09;101212.88;5059758;27;97336;-26
2023/09/01 06:39:22;;;;;;;4.22;1.83;;;;;;;16.04;82.25;101219.09;5059357;27;97899;-26
2023/09/01 06:41:47;;;;;;;5.47;2.38;;;;;;;16.04;82.36;101215.47;5057969;27;96740;-26
2023/09/01 06:44:12;;;;;;;4.63;2.30;;;;;;;16.01;82.02;101205.66;5059698;27;97029;-26
2023/09/01 06:46:38;;;;;;;4.55;2.38;;;;;;;15.98;82.16;101205.91;5059039;27;99173;-26
2023/09/01 06:49:03;;;;;;;4.35;2.08;;;;;;;16.05;81.84;101217.22;5059301;27;97969;-26
2023/09/01 06:51:29;;;;;;;6.65;2.30;;;;;;;16.08;82.35;101206.06;5059262;27;96566;-27
2023/09/01 06:53:54;;;;;;;3.47;2.08;;;;;;;16.14;81.66;101214.63;5059938;27;96787;-26
2023/09/01 06:56:20;;;;;;;3.58;2.10;;;;;;;16.16;82.20;101217.25;5058680;27;99445;-26
2023/09/01 06:58:45;;;;;;;4.93;2.22;;;;;;;16.14;81.76;101217.38;5059451;27;97943;-26
2023/09/01 07:01:11;;;;;;;6.78;2.30;;;;;;;16.20;81.89;101215.13;5059313;27;96514;-27
2023/09/01 07:03:37;;;;;;;4.53;2.40;;;;;;;16.18;81.81;101207.03;5059473;27;96766;-27
2023/09/01 07:06:03;;;;;;;4.15;2.28;;;;;;;16.21;81.41;101208.66;5040040;27;100940;-26
2023/09/01 07:08:29;;;;;;;4.50;1.92;;;;;;;16.17;81.79;101202.59;5040272;27;101570;-27
2023/09/01 07:11:05;;;;;;;8.10;2.25;;;;;;;16.22;82.12;101202.22;5040825;27;96583;-26
2023/09/01 07:13:31;;;;;;;3.22;2.05;;;;;;;16.16;82.37;101192.66;5059162;27;96811;-26
2023/09/01 07:15:56;;;;;;;6.63;2.17;;;;;;;16.16;83.10;101200.88;5058728;27;97853;-27
2023/09/01 07:18:23;;;;;;;5.00;2.08;;;;;;;16.18;82.77;101200.72;5040055;27;100820;-27
2023/09/01 07:20:49;;;;;;;5.63;2.08;;;;;;;16.16;82.77;101199.97;5040646;27;96618;-27
2023/09/01 07:23:15;;;;;;;5.70;2.00;;;;;;;16.18;82.75;101198.84;5040586;27;96912;-27
2023/09/01 07:25:40;;;;;;;4.97;2.08;;;;;;;16.20;82.52;101196.88;5058569;27;97938;-27
2023/09/01 07:28:06;;;;;;;3.58;1.85;;;;;;;16.22;82.51;101192.16;5058243;27;99136;-26
2023/09/01 07:30:32;;;;;;;5.03;2.55;;;;;;;16.21;83.10;101198.63;5058186;27;96513;-26
2023/09/01 07:32:58;;;;;;;4.93;2.17;;;;;;;16.21;82.70;101195.91;5040513;27;96879;-26
2023/09/01 07:35:24;;;;;;;4.47;2.13;;;;;;;16.19;82.12;101191.53;5039850;27;101206;-26
2023/09/01 07:37:49;;;;;;;5.32;2.15;;;;;;;16.22;83.30;101200.34;5058197;27;97717;-27
2023/09/01 07:40:15;;;;;;;2.63;1.65;;;;;;;16.20;83.27;101198.75;5058590;27;96554;-28
2023/09/01 07:42:40;;;;;;;4.22;2.05;;;;;;;16.28;82.61;101201.72;5058159;27;96691;-26
2023/09/01 07:45:06;;;;;;;3.65;1.80;;;;;;;16.29;82.57;101209.81;5058324;27;98160;-26
2023/09/01 07:47:32;;;;;;;3.38;2.03;;;;;;;16.33;83.18;101205.84;5058331;27;99605;-27
2023/09/01 07:49:58;;;;;;;4.55;2.22;;;;;;;16.31;83.39;101216.03;5040094;27;96642;-27
2023/09/01 07:52:23;;;;;;;4.45;2.00;;;;;;;16.29;83.78;101212.53;5058268;27;96867;-27
2023/09/01 07:54:49;;;;;;;4.95;2.03;;;;;;;16.31;83.06;101212.44;5057634;27;98181;-27
2023/09/01 07:57:14;;;;;;;5.10;2.15;;;;;;;16.36;83.05;101210.19;5058062;27;97365;-27
2023/09/01 07:59:40;;;;;;;3.85;2.15;;;;;;;16.29;83.56;101207.06;5058939;27;96633;-27
2023/09/01 08:02:06;;;;;;;4.00;1.98;;;;;;;16.36;82.89;101210.19;5058314;27;96805;-27
2023/09/01 08:04:31;;;;;;;4.38;2.03;;;;;;;16.38;83.60;101216.41;5039555;27;100972;-26
2023/09/01 08:06:59;;;;;;;3.65;2.13;;;;;;;16.36;82.89;101204.72;5058144;27;97224;-27
2023/09/01 08:09:25;;;;;;;6.03;2.58;;;;;;;16.37;83.63;101211.06;5040079;27;96554;-26
2023/09/01 08:11:50;;;;;;;5.93;1.98;;;;;;;16.41;83.24;101224.34;5058303;27;96794;-26
2023/09/01 08:14:16;;;;;;;7.47;2.22;;;;;;;16.44;83.31;101218.63;5058019;27;97402;-26
2023/09/01 08:16:41;;;;;;;4.88;2.60;;;;;;;16.41;83.11;101213.41;5057887;27;97428;-26
2023/09/01 08:19:06;;;;;;;6.03;2.13;;;;;;;16.45;82.84;101217.66;5057126;27;96885;-26
2023/09/01 08:21:33;;;;;;;4.90;1.95;;;;;;;16.39;83.82;101220.88;5058101;27;96779;-28
2023/09/01 08:23:59;;;;;;;4.35;1.92;;;;;;;16.41;83.99;101218.88;5057342;27;99333;-26
2023/09/01 08:26:24;;;;;;;3.80;1.95;;;;;;;16.42;83.22;101215.19;5039132;27;98888;-26
2023/09/01 08:28:50;;;;;;;4.18;2.22;;;;;;;16.48;83.95;101216.53;5057895;27;96568;-26
2023/09/01 08:31:15;;;;;;;5.82;2.53;;;;;;;16.48;83.54;101217.41;5058431;27;96827;-26
2023/09/01 08:33:42;;;;;;;4.45;2.28;;;;;;;16.48;83.47;101214.66;5057699;27;97826;-27
2023/09/01 08:36:07;;;;;;;2.95;1.80;;;;;;;16.46;84.28;101216.66;5057631;27;97441;-27
2023/09/01 08:38:32;;;;;;;4.03;2.00;;;;;;;16.45;84.29;101209.47;5058170;27;97157;-27
2023/09/01 08:40:59;;;;;;;4.07;2.28;;;;;;;16.39;83.77;101203.59;5057400;27;96893;-27
2023/09/01 08:43:27;;;;;;;4.80;2.40;;;;;;;16.47;85.18;101220.25;5056692;27;99718;-27
2023/09/01 08:45:53;;;;;;;5.10;2.13;;;;;;;16.43;85.42;101216.91;5038286;27;101502;-26
2023/09/01 08:48:18;;;;;;;3.75;2.05;;;;;;;16.41;85.13;101223.50;5036138;28;96705;-26
2023/09/01 08:50:43;;;;;;;3.58;2.35;;;;;;;16.45;84.47;101223.13;5037131;28;96795;-26
2023/09/01 08:53:09;;;;;;;5.85;2.30;;;;;;;16.53;84.36;101228.84;5037101;28;97942;-27
2023/09/01 08:55:34;;;;;;;3.22;1.95;;;;;;;16.52;85.18;101237.19;5036979;28;97890;-27
2023/09/01 08:58:00;;;;;;;4.43;2.20;;;;;;;16.53;84.48;101242.50;5037554;28;96659;-27
2023/09/01 09:00:25;;;;;;;4.32;2.67;;;;;;;16.53;85.18;101233.44;5037634;28;96929;-27
2023/09/01 09:02:50;;;;;;;5.93;2.55;;;;;;;16.55;84.42;101236.94;5036573;28;99352;-26
2023/09/01 09:05:16;;;;;;;4.57;1.83;;;;;;;16.58;84.32;101238.53;5036987;28;96833;-26
2023/09/01 09:07:42;;;;;;;5.10;2.50;;;;;;;16.59;84.21;101243.00;5036957;28;96510;-26
2023/09/01 09:10:07;;;;;;;3.72;2.28;;;;;;;16.62;83.84;101240.03;5037215;28;96751;-26
2023/09/01 09:12:38;;;;;;;4.05;2.55;;;;;;;16.62;84.28;101249.13;5036705;28;99846;-26
2023/09/01 09:15:05;;;;;;;3.47;2.15;;;;;;;16.66;83.92;101249.72;5018379;28;100971;-28
2023/09/01 09:17:44;;;;;;;5.03;2.38;;;;;;;16.62;85.41;101253.72;5018903;28;96621;-26
2023/09/01 09:20:17;;;;;;;3.08;2.03;;;;;;;16.62;84.57;101245.50;5036615;28;98895;-27
2023/09/01 09:22:57;;;;;;;4.88;2.70;;;;;;;16.63;84.58;101253.56;5018295;27;98922;-26
2023/09/01 09:25:29;;;;;;;6.82;2.60;;;;;;;16.62;84.64;101253.72;5040261;28;97821;-27
2023/09/01 09:27:58;;;;;;;4.85;2.75;;;;;;;16.63;84.45;101255.44;5022244;28;96839;-26
2023/09/01 09:30:27;;;;;;;4.25;2.13;;;;;;;16.62;84.73;101251.00;5022105;28;96869;-27
2023/09/01 09:33:06;;;;;;;7.75;2.83;;;;;;;16.66;84.43;101261.56;5021313;28;100839;-26
2023/09/01 09:35:47;;;;;;;6.35;2.63;;;;;;;16.66;84.30;101258.81;5021803;28;100857;-27
2023/09/01 09:38:13;;;;;;;5.53;2.70;;;;;;;16.68;84.78;101265.00;5022127;28;96682;-27
2023/09/01 09:40:38;;;;;;;4.03;2.35;;;;;;;16.75;84.72;101276.34;5021453;28;96942;-27
2023/09/01 09:43:08;;;;;;;4.78;2.58;;;;;;;16.75;85.19;101262.66;5021562;28;100820;-26
2023/09/01 09:45:34;;;;;;;5.38;2.55;;;;;;;16.69;86.13;101255.84;5021544;28;101076;-28
2023/09/01 09:48:05;;;;;;;6.30;3.03;;;;;;;16.73;86.01;101257.34;5040624;28;96499;-27
2023/09/01 09:50:32;;;;;;;7.47;2.80;;;;;;;16.75;85.86;101254.44;5022381;28;96850;-26
2023/09/01 09:53:05;;;;;;;5.90;2.67;;;;;;;16.76;86.43;101250.75;5021465;28;100625;-26
2023/09/01 09:55:58;;;;;;;5.70;2.83;;;;;;;16.77;87.01;101257.94;5021483;28;101131;-27
2023/09/01 09:58:38;;;;;;;4.57;2.47;;;;;;;16.80;86.50;101251.38;5033990;28;96883;-28
2023/09/01 10:01:10;;;;;;;7.13;3.17;;;;;;;16.92;86.95;101270.41;5040349;28;96601;-26
2023/09/01 10:03:36;;;;;;;6.40;3.08;;;;;;;16.90;86.26;101272.41;5021009;28;100870;-27
2023/09/01 10:06:05;;;;;;;5.93;3.03;;;;;;;17.02;85.03;101291.53;5039480;28;97357;-26
2023/09/01 10:08:32;;;;;;;5.70;3.33;;;;;;;17.00;84.92;101279.88;5021728;28;96691;-28
2023/09/01 10:10:59;;;;;;;4.85;2.90;;;;;;;16.98;85.12;101286.31;5021523;28;96948;-27
2023/09/01 10:13:25;;;;;;;5.85;2.92;;;;;;;17.00;85.54;101282.59;5039506;28;97408;-26
2023/09/01 10:15:51;;;;;;;6.15;3.28;;;;;;;17.03;85.27;101293.28;5021430;28;100909;-27
2023/09/01 10:18:17;;;;;;;7.43;3.35;;;;;;;17.01;85.00;101303.50;5021058;28;96611;-27
2023/09/01 10:20:43;;;;;;;6.50;3.45;;;;;;;17.00;85.59;101301.75;5039649;28;96813;-26
2023/09/01 10:23:10;;;;;;;4.53;2.70;;;;;;;16.97;85.29;101301.00;5020395;28;100869;-26
2023/09/01 10:25:36;;;;;;;7.03;2.92;;;;;;;16.98;85.29;101294.53;5038959;28;99279;-26
2023/09/01 10:28:10;;;;;;;5.72;2.70;;;;;;;17.01;85.97;101311.69;5021506;28;96518;-26
2023/09/01 10:30:37;;;;;;;4.82;2.75;;;;;;;17.02;86.10;101311.59;5021257;28;96739;-26
2023/09/01 10:33:10;;;;;;;5.65;3.15;;;;;;;17.04;85.89;101316.91;5020833;28;100804;-26
2023/09/01 10:35:59;;;;;;;6.03;2.95;;;;;;;17.07;85.58;101324.91;5020478;28;101390;-27
2023/09/01 10:38:34;;;;;;;5.72;2.50;;;;;;;17.09;85.93;101325.63;5021406;28;96610;-27
2023/09/01 10:40:59;;;;;;;4.78;2.55;;;;;;;17.10;85.44;101313.69;5039309;28;96867;-27
2023/09/01 10:43:41;;;;;;;6.38;3.40;;;;;;;17.13;85.96;101322.50;5038846;28;97898;-27
2023/09/01 10:46:22;;;;;;;5.88;2.95;;;;;;;17.17;85.86;101317.66;5020593;28;99539;-27
2023/09/01 10:48:47;;;;;;;4.65;2.63;;;;;;;17.20;86.68;101321.00;5038770;28;96533;-26
2023/09/01 10:51:28;;;;;;;7.00;2.97;;;;;;;17.23;85.45;101314.41;5039237;28;96868;-27
2023/09/01 10:54:00;;;;;;;6.45;2.65;;;;;;;17.30;85.41;101323.00;5038762;28;98943;-26
2023/09/01 10:56:26;;;;;;;10.80;2.22;;;;;;;17.35;86.29;101328.97;5038928;28;97952;-26
2023/09/01 10:58:54;;;;;;;8.27;2.63;;;;;;;17.36;86.01;101315.16;5039183;28;96524;-27
2023/09/01 11:01:33;;;;;;;5.43;2.67;;;;;;;17.46;86.04;101317.13;5020924;28;96847;-26
2023/09/01 11:04:16;;;;;;;6.18;2.72;;;;;;;17.57;85.49;101306.16;5020088;28;101051;-26
2023/09/01 11:06:57;;;;;;;6.07;2.95;;;;;;;17.73;84.77;101316.66;5038747;28;97866;-27
2023/09/01 11:09:34;;;;;;;5.13;2.85;;;;;;;17.79;84.50;101307.94;5046063;27;96761;-27
2023/09/01 11:12:06;;;;;;;5.45;3.25;;;;;;;17.91;84.75;101309.69;5058893;27;97440;-26
2023/09/01 11:14:33;;;;;;;7.63;3.03;;;;;;;17.89;83.89;101311.66;5038170;27;101249;-26
2023/09/01 11:17:00;;;;;;;5.28;2.85;;;;;;;17.89;84.49;101313.56;5038705;27;100758;-26
2023/09/01 11:19:26;;;;;;;5.38;2.92;;;;;;;17.89;84.72;101313.56;5040614;27;96756;-26
2023/09/01 11:21:52;;;;;;;4.95;2.92;;;;;;;18.04;83.91;101323.19;5040746;27;96976;-27
2023/09/01 11:24:21;;;;;;;4.72;2.92;;;;;;;18.03;84.89;101314.09;5058605;27;98194;-26